Time;durP1;ratioP1;P1;durP2;ratioP2;P2;SDS_P1;SDS_P2;PMS_P1;PMS_P2;Temp;Humidity;BMP_temperature;BMP_pressure;BME280_temperature;BME280_humidity;BME280_pressure;Samples;Min_cycle;Max_cycle;Signal;HPM_P1;HPM_P2
2022/04/01 00:02:12;;;;;;;14.93;8.50;;;;;;;;;;1784502;80;21049;-69
2022/04/01 00:04:39;;;;;;;18.10;9.33;;;;;;;;;;1784587;80;21088;-69
2022/04/01 00:07:06;;;;;;;16.17;8.68;;;;;;;;;;1784561;80;21017;-69
2022/04/01 00:09:33;;;;;;;13.28;8.10;;;;;;;;;;1784417;80;21062;-69
2022/04/01 00:12:01;;;;;;;16.10;8.23;;;;;;;;;;1784516;80;21068;-70
2022/04/01 00:14:28;;;;;;;13.50;7.72;;;;;;;;;;1756481;80;21044;-70
2022/04/01 00:16:57;;;;;;;15.68;8.55;;;;;;;;;;1781554;80;21060;-69
2022/04/01 00:19:25;;;;;;;14.33;7.58;;;;;;;;;;1778472;81;21568;-70
2022/04/01 00:21:53;;;;;;;16.57;8.78;;;;;;;;;;1778535;81;21033;-70
2022/04/01 00:24:19;;;;;;;18.17;8.73;;;;;;;;;;1778813;81;21095;-69
2022/04/01 00:26:45;;;;;;;17.85;9.10;;;;;;;;;;1778679;81;21116;-69
2022/04/01 00:29:15;;;;;;;14.00;7.58;;;;;;;;;;1778912;81;21028;-69
2022/04/01 00:31:42;;;;;;;15.35;9.10;;;;;;;;;;1778591;81;21025;-69
2022/04/01 00:34:17;;;;;;;17.50;8.85;;;;;;;;;;1778899;81;21556;-69
2022/04/01 00:36:45;;;;;;;15.32;8.13;;;;;;;;;;1778521;81;21053;-69
2022/04/01 00:39:12;;;;;;;16.45;9.05;;;;;;;;;;1778702;81;21057;-69
2022/04/01 00:41:39;;;;;;;15.95;9.58;;;;;;;;;;1778678;81;22045;-69
2022/04/01 00:44:17;;;;;;;13.80;7.83;;;;;;;;;;1778585;81;21097;-70
2022/04/01 00:46:42;;;;;;;16.60;9.23;;;;;;;;;;1777797;80;21029;-69
2022/04/01 00:49:08;;;;;;;16.93;8.73;;;;;;;;;;1778775;81;21010;-68
2022/04/01 00:51:37;;;;;;;15.03;8.30;;;;;;;;;;1778584;81;21029;-68
2022/04/01 00:54:09;;;;;;;15.23;8.98;;;;;;;;;;1778829;81;21528;-69
2022/04/01 00:56:35;;;;;;;16.17;8.03;;;;;;;;;;1778475;81;21021;-69
2022/04/01 00:59:02;;;;;;;14.13;7.87;;;;;;;;;;1778915;81;21060;-70
2022/04/01 01:04:19;;;;;;;18.92;8.60;;;;;;;;;;1713413;78;21171;-71
2022/04/01 01:06:48;;;;;;;16.17;9.33;;;;;;;;;;1687729;84;21037;-70
2022/04/01 01:09:17;;;;;;;14.90;8.63;;;;;;;;;;1679007;85;21058;-71
2022/04/01 01:11:45;;;;;;;17.95;9.00;;;;;;;;;;1678978;85;21065;-70
2022/04/01 01:14:13;;;;;;;13.85;8.23;;;;;;;;;;1659574;85;21584;-70
2022/04/01 01:16:41;;;;;;;14.63;8.90;;;;;;;;;;1679018;85;21576;-70
2022/04/01 01:19:08;;;;;;;19.48;10.93;;;;;;;;;;1679111;85;21112;-70
2022/04/01 01:21:35;;;;;;;13.60;8.08;;;;;;;;;;1678794;85;21128;-71
2022/04/01 01:24:03;;;;;;;14.13;8.10;;;;;;;;;;1679167;85;21580;-71
2022/04/01 01:26:31;;;;;;;13.85;8.15;;;;;;;;;;1679096;85;21025;-71
2022/04/01 01:28:57;;;;;;;15.25;7.90;;;;;;;;;;1679169;85;21077;-71
2022/04/01 01:31:25;;;;;;;14.05;8.08;;;;;;;;;;1678759;85;21160;-72
2022/04/01 01:33:51;;;;;;;15.45;9.50;;;;;;;;;;1678908;85;21548;-72
2022/04/01 01:36:17;;;;;;;16.02;8.75;;;;;;;;;;1678548;85;21129;-72
2022/04/01 01:38:44;;;;;;;16.17;8.20;;;;;;;;;;1679088;85;21299;-71
2022/04/01 01:41:11;;;;;;;16.20;8.75;;;;;;;;;;1679219;85;21057;-71
2022/04/01 01:43:39;;;;;;;16.95;9.23;;;;;;;;;;1679093;85;21046;-72
2022/04/01 01:46:05;;;;;;;15.08;8.60;;;;;;;;;;1679202;85;21085;-72
2022/04/01 01:48:31;;;;;;;15.43;8.90;;;;;;;;;;1679046;85;21017;-72
2022/04/01 01:56:29;;;;;;;16.97;9.63;;;;;;;;;;1679180;85;21560;-71
2022/04/01 01:58:57;;;;;;;14.07;8.55;;;;;;;;;;1678881;85;21092;-71
2022/04/01 02:01:24;;;;;;;15.55;8.53;;;;;;;;;;1679091;85;21544;-71
2022/04/01 02:03:51;;;;;;;15.90;8.83;;;;;;;;;;1679759;85;21670;-71
2022/04/01 02:06:21;;;;;;;15.35;8.23;;;;;;;;;;1682976;85;21009;-71
2022/04/01 02:08:46;;;;;;;14.35;8.68;;;;;;;;;;1682645;85;21667;-71
2022/04/01 02:11:13;;;;;;;14.80;8.40;;;;;;;;;;1682947;85;21548;-70
2022/04/01 02:13:40;;;;;;;13.85;8.00;;;;;;;;;;1682727;85;21064;-69
2022/04/01 02:16:07;;;;;;;12.65;7.87;;;;;;;;;;1682928;85;21084;-69
2022/04/01 02:18:33;;;;;;;14.05;8.40;;;;;;;;;;1682640;85;21033;-70
2022/04/01 02:21:01;;;;;;;14.87;8.78;;;;;;;;;;1682888;85;21104;-72
2022/04/01 02:23:28;;;;;;;14.60;7.65;;;;;;;;;;1682593;85;21065;-70
2022/04/01 02:25:55;;;;;;;11.03;6.58;;;;;;;;;;1682772;85;21029;-70
2022/04/01 02:28:23;;;;;;;15.50;8.30;;;;;;;;;;1682718;85;21093;-70
2022/04/01 02:30:51;;;;;;;13.25;7.40;;;;;;;;;;1622227;87;21614;-69
2022/04/01 02:33:20;;;;;;;11.22;7.08;;;;;;;;;;1678417;85;21138;-70
2022/04/01 02:35:48;;;;;;;11.30;7.45;;;;;;;;;;1681985;85;21057;-69
2022/04/01 02:38:15;;;;;;;10.95;7.60;;;;;;;;;;1682555;85;21089;-69
2022/04/01 02:40:43;;;;;;;11.68;7.50;;;;;;;;;;1682695;85;21141;-69
2022/04/01 02:43:09;;;;;;;10.65;6.87;;;;;;;;;;1682802;85;21073;-70
2022/04/01 02:45:38;;;;;;;12.95;7.08;;;;;;;;;;1682688;85;21029;-69
2022/04/01 02:48:05;;;;;;;9.23;6.37;;;;;;;;;;1682752;85;21032;-69
2022/04/01 02:50:34;;;;;;;14.15;8.13;;;;;;;;;;1639610;87;21587;-69
2022/04/01 02:53:00;;;;;;;11.55;6.85;;;;;;;;;;1682759;85;21036;-69
2022/04/01 02:55:27;;;;;;;9.65;6.72;;;;;;;;;;1682701;85;21108;-69
2022/04/01 02:57:54;;;;;;;9.53;6.33;;;;;;;;;;1682595;85;21069;-69
2022/04/01 03:00:24;;;;;;;11.57;5.60;;;;;;;;;;1655364;85;22025;-69
2022/04/01 03:02:56;;;;;;;10.75;6.53;;;;;;;;;;1682285;85;21079;-69
2022/04/01 03:05:22;;;;;;;8.33;5.30;;;;;;;;;;1678374;85;21065;-69
2022/04/01 03:07:48;;;;;;;9.83;6.33;;;;;;;;;;1677733;85;21013;-70
2022/04/01 03:10:17;;;;;;;9.55;5.20;;;;;;;;;;1677364;85;21536;-70
2022/04/01 03:12:44;;;;;;;9.30;6.22;;;;;;;;;;1677550;85;21096;-70
2022/04/01 03:15:19;;;;;;;9.03;5.75;;;;;;;;;;1676123;85;21061;-70
2022/04/01 03:17:54;;;;;;;10.53;6.08;;;;;;;;;;1643401;85;21575;-70
2022/04/01 03:20:35;;;;;;;9.98;5.85;;;;;;;;;;1677144;85;21121;-70
2022/04/01 03:23:03;;;;;;;9.68;6.47;;;;;;;;;;1677567;85;21105;-69
2022/04/01 03:25:32;;;;;;;9.23;5.10;;;;;;;;;;1640368;87;21591;-69
2022/04/01 03:28:01;;;;;;;12.25;6.83;;;;;;;;;;1673978;85;21097;-69
2022/04/01 03:30:28;;;;;;;10.88;6.72;;;;;;;;;;1677549;85;21014;-70
2022/04/01 03:32:55;;;;;;;9.03;5.65;;;;;;;;;;1677952;85;21509;-69
2022/04/01 03:35:22;;;;;;;8.38;5.42;;;;;;;;;;1677569;85;21576;-70
2022/04/01 03:37:51;;;;;;;11.15;5.60;;;;;;;;;;1677803;85;21053;-69
2022/04/01 03:40:17;;;;;;;10.68;6.58;;;;;;;;;;1677532;85;21604;-70
2022/04/01 03:42:44;;;;;;;12.60;8.08;;;;;;;;;;1658281;85;21540;-70
2022/04/01 03:45:12;;;;;;;8.58;5.72;;;;;;;;;;1677573;85;21065;-70
2022/04/01 03:47:47;;;;;;;11.80;7.85;;;;;;;;;;1640023;87;21089;-70
2022/04/01 03:50:14;;;;;;;12.18;8.15;;;;;;;;;;1677560;85;21066;-70
2022/04/01 03:52:41;;;;;;;13.50;7.85;;;;;;;;;;1677674;85;21065;-70
2022/04/01 03:55:09;;;;;;;14.58;7.83;;;;;;;;;;1677577;85;21049;-70
2022/04/01 03:57:53;;;;;;;12.28;8.00;;;;;;;;;;1677621;85;21081;-70
2022/04/01 04:00:21;;;;;;;11.43;7.33;;;;;;;;;;1674536;85;21144;-70
2022/04/01 04:02:48;;;;;;;11.65;6.80;;;;;;;;;;1677629;85;21032;-70
2022/04/01 04:05:19;;;;;;;14.75;9.00;;;;;;;;;;1677066;85;21042;-71
2022/04/01 04:07:46;;;;;;;13.72;8.53;;;;;;;;;;1677249;85;21077;-70
2022/04/01 04:10:14;;;;;;;12.82;8.45;;;;;;;;;;1640753;87;21548;-70
2022/04/01 04:12:42;;;;;;;12.75;7.70;;;;;;;;;;1668927;85;21105;-71
2022/04/01 04:15:09;;;;;;;12.05;7.67;;;;;;;;;;1677610;85;21048;-71
2022/04/01 04:17:38;;;;;;;14.95;8.43;;;;;;;;;;1677633;85;21061;-70
2022/04/01 04:20:10;;;;;;;15.35;8.75;;;;;;;;;;1677285;85;21084;-71
2022/04/01 04:22:40;;;;;;;16.25;9.83;;;;;;;;;;1640687;87;21081;-71
2022/04/01 04:25:14;;;;;;;16.30;9.68;;;;;;;;;;1676664;85;21509;-71
2022/04/01 04:27:43;;;;;;;16.40;10.08;;;;;;;;;;1677504;85;21045;-70
2022/04/01 04:30:10;;;;;;;16.62;9.85;;;;;;;;;;1677230;85;21477;-69
2022/04/01 04:32:46;;;;;;;17.65;11.10;;;;;;;;;;1676196;85;21569;-69
2022/04/01 04:35:12;;;;;;;17.62;11.15;;;;;;;;;;1676441;85;21069;-70
2022/04/01 04:37:43;;;;;;;19.57;11.28;;;;;;;;;;1677508;85;21025;-70
2022/04/01 04:40:12;;;;;;;20.12;11.60;;;;;;;;;;1677523;85;20997;-71
2022/04/01 04:42:48;;;;;;;18.37;10.75;;;;;;;;;;1677287;85;21054;-70
2022/04/01 04:45:18;;;;;;;17.87;11.00;;;;;;;;;;1677579;85;21035;-72
2022/04/01 04:47:46;;;;;;;18.42;11.22;;;;;;;;;;1677642;85;21440;-72
2022/04/01 04:50:13;;;;;;;17.17;9.83;;;;;;;;;;1677620;85;21069;-71
2022/04/01 04:52:40;;;;;;;19.48;11.10;;;;;;;;;;1677613;85;21505;-71
2022/04/01 04:55:07;;;;;;;19.32;10.72;;;;;;;;;;1677371;85;21096;-71
2022/04/01 04:57:45;;;;;;;20.10;12.37;;;;;;;;;;1676659;85;21643;-70
2022/04/01 05:00:12;;;;;;;21.25;11.90;;;;;;;;;;1677372;85;21073;-70
2022/04/01 05:02:57;;;;;;;18.87;10.25;;;;;;;;;;1677593;85;21037;-71
2022/04/01 05:05:28;;;;;;;19.25;11.63;;;;;;;;;;1677624;85;21077;-70
2022/04/01 05:08:17;;;;;;;24.00;14.18;;;;;;;;;;1677620;85;21078;-71
2022/04/01 05:10:59;;;;;;;22.20;11.90;;;;;;;;;;1643195;85;21093;-70
2022/04/01 05:13:37;;;;;;;20.82;11.53;;;;;;;;;;1677386;85;21144;-71
2022/04/01 05:16:06;;;;;;;22.85;12.47;;;;;;;;;;1677086;85;21105;-70
2022/04/01 05:18:42;;;;;;;19.40;10.50;;;;;;;;;;1658399;85;21092;-71
2022/04/01 05:21:10;;;;;;;19.90;11.90;;;;;;;;;;1677096;85;21078;-70
2022/04/01 05:23:43;;;;;;;24.27;13.43;;;;;;;;;;1676643;85;21081;-70
2022/04/01 05:26:11;;;;;;;21.97;11.63;;;;;;;;;;1677446;85;21076;-72
2022/04/01 05:28:59;;;;;;;23.05;13.18;;;;;;;;;;1677583;85;21581;-71
2022/04/01 05:32:52;;;;;;;21.77;11.70;;;;;;;;;;1801909;79;23341;-71
2022/04/01 05:35:19;;;;;;;18.35;9.45;;;;;;;;;;1761626;81;20986;-71
2022/04/01 05:37:46;;;;;;;20.17;11.83;;;;;;;;;;1761507;81;21095;-71
2022/04/01 05:40:14;;;;;;;24.50;12.78;;;;;;;;;;1761719;81;21028;-70
2022/04/01 05:42:43;;;;;;;18.23;11.50;;;;;;;;;;1761677;81;21112;-71
2022/04/01 05:45:13;;;;;;;25.25;15.03;;;;;;;;;;1699060;81;21009;-70
2022/04/01 05:47:40;;;;;;;21.55;11.88;;;;;;;;;;1761749;81;21055;-71
2022/04/01 05:50:07;;;;;;;21.70;12.63;;;;;;;;;;1761644;81;21038;-71
2022/04/01 05:52:36;;;;;;;24.75;15.30;;;;;;;;;;1761890;81;21045;-70
2022/04/01 05:55:03;;;;;;;22.37;12.90;;;;;;;;;;1761683;81;21020;-71
2022/04/01 05:57:29;;;;;;;23.95;13.62;;;;;;;;;;1761883;81;20980;-70
2022/04/01 05:59:56;;;;;;;21.27;12.75;;;;;;;;;;1761797;81;21037;-71
2022/04/01 06:02:41;;;;;;;20.97;9.80;;;;;;;;;;1761888;81;21012;-71
2022/04/01 06:05:28;;;;;;;22.15;13.83;;;;;;;;;;1731527;83;21535;-70
2022/04/01 06:08:14;;;;;;;23.95;13.03;;;;;;;;;;1731786;82;21036;-70
2022/04/01 06:10:46;;;;;;;17.87;9.48;;;;;;;;;;1731505;82;21654;-70
2022/04/01 06:13:36;;;;;;;22.17;11.15;;;;;;;;;;1690101;82;21114;-71
2022/04/01 06:16:20;;;;;;;21.42;12.25;;;;;;;;;;1694086;84;21165;-71
2022/04/01 06:19:09;;;;;;;22.15;14.45;;;;;;;;;;1686335;85;21057;-71
2022/04/01 06:21:41;;;;;;;24.60;14.25;;;;;;;;;;1686193;85;21105;-71
2022/04/01 06:24:09;;;;;;;24.35;12.60;;;;;;;;;;1686232;85;21092;-71
2022/04/01 06:26:40;;;;;;;21.65;12.73;;;;;;;;;;1685759;85;21073;-70
2022/04/01 06:29:09;;;;;;;20.97;13.18;;;;;;;;;;1686120;85;21077;-70
2022/04/01 06:31:37;;;;;;;26.05;13.62;;;;;;;;;;1680018;85;21061;-70
2022/04/01 06:34:05;;;;;;;20.23;11.57;;;;;;;;;;1654224;86;21081;-70
2022/04/01 06:36:35;;;;;;;25.15;12.75;;;;;;;;;;1671409;86;21128;-72
2022/04/01 06:39:06;;;;;;;23.42;14.33;;;;;;;;;;1671551;86;21584;-70
2022/04/01 06:41:44;;;;;;;25.02;15.23;;;;;;;;;;1671459;86;21117;-70
2022/04/01 06:44:13;;;;;;;20.82;13.80;;;;;;;;;;1667988;86;21085;-72
2022/04/01 06:46:58;;;;;;;21.12;11.35;;;;;;;;;;1671139;86;21065;-70
2022/04/01 06:49:25;;;;;;;28.92;14.10;;;;;;;;;;1671070;86;20995;-70
2022/04/01 06:52:10;;;;;;;20.72;11.68;;;;;;;;;;1671013;86;21057;-72
2022/04/01 06:55:01;;;;;;;25.52;13.68;;;;;;;;;;1670543;86;21154;-71
2022/04/01 06:57:35;;;;;;;24.20;12.55;;;;;;;;;;1668125;85;21061;-71
2022/04/01 07:00:09;;;;;;;22.10;11.65;;;;;;;;;;1669998;85;21100;-71
2022/04/01 07:02:36;;;;;;;25.48;12.07;;;;;;;;;;1670903;86;21529;-70
2022/04/01 07:05:02;;;;;;;23.57;13.53;;;;;;;;;;1670733;86;21094;-69
2022/04/01 07:07:30;;;;;;;27.77;14.13;;;;;;;;;;1670806;86;21058;-70
2022/04/01 07:09:58;;;;;;;22.82;13.50;;;;;;;;;;1670883;86;21089;-70
2022/04/01 07:12:25;;;;;;;26.82;15.23;;;;;;;;;;1670927;86;21085;-70
2022/04/01 07:14:51;;;;;;;29.05;15.13;;;;;;;;;;1670770;86;21053;-70
2022/04/01 07:17:18;;;;;;;22.65;11.90;;;;;;;;;;1670839;86;21113;-70
2022/04/01 07:19:44;;;;;;;21.97;11.28;;;;;;;;;;1670821;86;21042;-71
2022/04/01 07:22:11;;;;;;;27.73;14.10;;;;;;;;;;1670925;86;21038;-71
2022/04/01 07:24:37;;;;;;;27.60;14.80;;;;;;;;;;1670875;86;21065;-71
2022/04/01 07:27:04;;;;;;;27.13;12.35;;;;;;;;;;1670943;86;21053;-71
2022/04/01 07:29:30;;;;;;;29.63;13.38;;;;;;;;;;1670854;86;21541;-71
2022/04/01 07:32:32;;;;;;;22.90;12.23;;;;;;;;;;1670843;86;21197;-70
2022/04/01 07:35:04;;;;;;;21.87;11.65;;;;;;;;;;1583087;90;21087;-71
2022/04/01 07:37:31;;;;;;;21.27;13.35;;;;;;;;;;1629780;87;21540;-71
2022/04/01 07:39:59;;;;;;;24.00;12.78;;;;;;;;;;1629887;87;21068;-71
2022/04/01 07:42:44;;;;;;;22.98;13.93;;;;;;;;;;1629761;87;21596;-71
2022/04/01 07:45:11;;;;;;;20.88;12.55;;;;;;;;;;1629788;88;21116;-71
2022/04/01 07:47:38;;;;;;;26.30;14.15;;;;;;;;;;1629644;87;21049;-70
2022/04/01 07:50:04;;;;;;;25.23;11.12;;;;;;;;;;1629931;87;21037;-71
2022/04/01 07:52:33;;;;;;;23.85;11.73;;;;;;;;;;1577370;91;21147;-71
2022/04/01 07:55:01;;;;;;;21.23;10.32;;;;;;;;;;1577745;90;21120;-71
2022/04/01 07:57:28;;;;;;;24.35;13.68;;;;;;;;;;1577729;90;21124;-71
2022/04/01 07:59:54;;;;;;;22.30;12.20;;;;;;;;;;1577542;90;21050;-71
2022/04/01 08:02:21;;;;;;;21.40;10.55;;;;;;;;;;1577540;91;21667;-71
2022/04/01 08:04:48;;;;;;;25.72;14.50;;;;;;;;;;1577390;91;21189;-70
2022/04/01 08:07:33;;;;;;;23.83;10.78;;;;;;;;;;1577627;91;21244;-70
2022/04/01 08:10:18;;;;;;;29.37;12.45;;;;;;;;;;1577231;90;21137;-71
2022/04/01 08:12:44;;;;;;;21.95;11.28;;;;;;;;;;1637720;85;21045;-71
2022/04/01 08:15:14;;;;;;;19.23;10.65;;;;;;;;;;1677128;85;21125;-71
2022/04/01 08:17:42;;;;;;;19.32;11.53;;;;;;;;;;1605765;89;21163;-71
2022/04/01 08:20:29;;;;;;;20.12;11.45;;;;;;;;;;1605640;89;21099;-71
2022/04/01 08:23:16;;;;;;;24.72;13.00;;;;;;;;;;1605885;89;21140;-70
2022/04/01 08:25:43;;;;;;;20.57;10.65;;;;;;;;;;1605983;89;21611;-70
2022/04/01 08:28:11;;;;;;;24.35;11.18;;;;;;;;;;1606000;89;20972;-69
2022/04/01 08:30:41;;;;;;;21.40;11.35;;;;;;;;;;1625433;88;21067;-71
2022/04/01 08:33:08;;;;;;;25.35;12.95;;;;;;;;;;1631861;87;21058;-73
2022/04/01 08:35:36;;;;;;;16.45;9.60;;;;;;;;;;1631776;88;21036;-73
2022/04/01 08:38:04;;;;;;;21.15;12.13;;;;;;;;;;1631818;88;21595;-72
2022/04/01 08:40:32;;;;;;;18.80;11.18;;;;;;;;;;1636098;87;21104;-73
2022/04/01 08:43:24;;;;;;;21.20;11.10;;;;;;;;;;1636149;88;21635;-71
2022/04/01 08:45:50;;;;;;;19.70;10.78;;;;;;;;;;1635985;88;21045;-74
2022/04/01 08:48:17;;;;;;;25.72;13.32;;;;;;;;;;1636287;88;21077;-72
2022/04/01 08:51:01;;;;;;;22.42;10.78;;;;;;;;;;1635994;88;21214;-71
2022/04/01 08:53:28;;;;;;;19.82;10.58;;;;;;;;;;1636248;88;21079;-71
2022/04/01 08:55:56;;;;;;;18.12;10.20;;;;;;;;;;1559190;92;21104;-71
2022/04/01 08:58:42;;;;;;;17.20;10.80;;;;;;;;;;1560380;92;21107;-73
2022/04/01 09:01:11;;;;;;;21.97;10.23;;;;;;;;;;1511051;95;21172;-71
2022/04/01 09:03:39;;;;;;;34.55;14.78;;;;;;;;;;1511238;93;21137;-71
2022/04/01 09:06:07;;;;;;;46.68;19.15;;;;;;;;;;1511281;95;21129;-71
2022/04/01 09:08:54;;;;;;;25.08;13.40;;;;;;;;;;1511352;95;21100;-72
2022/04/01 09:11:40;;;;;;;22.10;11.50;;;;;;;;;;1511051;95;21154;-71
2022/04/01 09:14:25;;;;;;;25.90;11.12;;;;;;;;;;1511306;95;21117;-71
2022/04/01 09:16:56;;;;;;;22.60;11.93;;;;;;;;;;1511668;94;21136;-71
2022/04/01 09:19:41;;;;;;;17.50;9.48;;;;;;;;;;1530466;93;21091;-71
2022/04/01 09:22:16;;;;;;;22.65;11.40;;;;;;;;;;1530506;93;21663;-72
2022/04/01 09:24:54;;;;;;;18.52;10.85;;;;;;;;;;1530489;93;21075;-72
2022/04/01 09:27:43;;;;;;;23.92;13.58;;;;;;;;;;1530368;93;21416;-71
2022/04/01 09:30:28;;;;;;;21.50;10.93;;;;;;;;;;1530281;93;21119;-70
2022/04/01 09:33:13;;;;;;;18.85;10.78;;;;;;;;;;1571238;88;21641;-70
2022/04/01 09:36:00;;;;;;;23.00;11.65;;;;;;;;;;1632235;88;21198;-70
2022/04/01 09:38:53;;;;;;;18.65;9.95;;;;;;;;;;1682325;83;21097;-70
2022/04/01 09:41:23;;;;;;;21.23;10.13;;;;;;;;;;1635582;87;21632;-70
2022/04/01 09:43:52;;;;;;;19.30;12.23;;;;;;;;;;1608049;89;21132;-70
2022/04/01 09:46:26;;;;;;;26.15;12.73;;;;;;;;;;1611908;89;21084;-70
2022/04/01 09:49:13;;;;;;;23.22;11.28;;;;;;;;;;1611424;89;21105;-69
2022/04/01 09:51:58;;;;;;;19.77;10.10;;;;;;;;;;1607950;89;21175;-69
2022/04/01 09:54:43;;;;;;;17.67;9.80;;;;;;;;;;1608145;89;21057;-71
2022/04/01 09:57:11;;;;;;;18.57;11.35;;;;;;;;;;1608181;89;21088;-71
2022/04/01 09:59:40;;;;;;;18.37;11.35;;;;;;;;;;1608086;89;21052;-70
2022/04/01 10:02:26;;;;;;;18.32;11.22;;;;;;;;;;1607860;89;21065;-68
2022/04/01 10:04:58;;;;;;;21.75;11.70;;;;;;;;;;1607901;88;21615;-70
2022/04/01 10:07:22;;;;;;;20.17;11.73;;;;;;;;;;1607820;89;21100;-70
2022/04/01 10:09:50;;;;;;;22.15;11.97;;;;;;;;;;1608199;89;21073;-70
2022/04/01 10:12:19;;;;;;;19.82;10.82;;;;;;;;;;1556969;92;21112;-70
2022/04/01 10:15:07;;;;;;;21.68;10.35;;;;;;;;;;1557243;92;21116;-71
2022/04/01 10:17:36;;;;;;;22.15;13.10;;;;;;;;;;1549222;92;21628;-69
2022/04/01 10:20:04;;;;;;;21.73;11.28;;;;;;;;;;1565502;91;21632;-71
2022/04/01 10:22:50;;;;;;;23.70;13.35;;;;;;;;;;1648001;87;21126;-71
2022/04/01 10:25:39;;;;;;;22.27;11.75;;;;;;;;;;1648161;87;21064;-71
2022/04/01 10:28:07;;;;;;;20.27;11.70;;;;;;;;;;1648098;87;21556;-71
2022/04/01 10:30:36;;;;;;;23.90;12.55;;;;;;;;;;1555573;92;21164;-71
2022/04/01 10:33:21;;;;;;;21.73;11.55;;;;;;;;;;1552744;91;21149;-70
2022/04/01 10:35:49;;;;;;;17.42;10.45;;;;;;;;;;1552916;92;21576;-71
2022/04/01 10:38:17;;;;;;;23.40;13.95;;;;;;;;;;1553074;92;21104;-71
2022/04/01 10:40:45;;;;;;;22.62;11.03;;;;;;;;;;1552931;92;21577;-70
2022/04/01 10:43:15;;;;;;;20.30;13.18;;;;;;;;;;1504030;95;21578;-70
2022/04/01 10:46:11;;;;;;;19.67;9.98;;;;;;;;;;1503937;95;21187;-71
2022/04/01 10:51:44;;;;;;;20.30;12.73;;;;;;;;;;1464957;98;21704;-70
2022/04/01 10:54:14;;;;;;;21.57;11.03;;;;;;;;;;1434179;100;21643;-70
2022/04/01 10:57:06;;;;;;;22.58;13.00;;;;;;;;;;1434330;100;21174;-70
2022/04/01 10:59:39;;;;;;;20.77;11.83;;;;;;;;;;1434467;100;21246;-70
2022/04/01 11:02:06;;;;;;;;;;;;;;;;;;1436518;100;21623;-69
2022/04/01 11:04:45;;;;;;;22.65;10.48;;;;;;;;;;1434279;100;20116;-69
2022/04/01 11:07:33;;;;;;;20.95;12.18;;;;;;;;;;1443886;97;21224;-69
2022/04/01 11:10:00;;;;;;;20.70;14.13;;;;;;;;;;1456008;97;21118;-70
2022/04/01 11:12:29;;;;;;;21.40;12.75;;;;;;;;;;1439189;100;21754;-70
2022/04/01 11:15:09;;;;;;;22.20;14.23;;;;;;;;;;1426484;101;21633;-71
2022/04/01 11:17:37;;;;;;;23.15;12.03;;;;;;;;;;1426611;101;21096;-69
2022/04/01 11:20:12;;;;;;;22.22;11.90;;;;;;;;;;1441667;96;21158;-69
2022/04/01 11:22:41;;;;;;;26.97;13.62;;;;;;;;;;1497218;96;21091;-69
2022/04/01 11:25:33;;;;;;;22.73;14.63;;;;;;;;;;1502377;91;21080;-69
2022/04/01 11:28:19;;;;;;;23.90;13.08;;;;;;;;;;1599020;87;21583;-69
2022/04/01 11:31:06;;;;;;;23.05;13.08;;;;;;;;;;1691698;83;21064;-68
2022/04/01 11:33:35;;;;;;;27.30;13.32;;;;;;;;;;1720803;82;21100;-70
2022/04/01 11:36:03;;;;;;;26.05;13.98;;;;;;;;;;1718461;83;21489;-69
2022/04/01 11:38:31;;;;;;;25.15;12.28;;;;;;;;;;1718603;83;21057;-70
2022/04/01 11:41:00;;;;;;;25.92;13.78;;;;;;;;;;1718357;83;21036;-70
2022/04/01 11:43:27;;;;;;;29.72;15.20;;;;;;;;;;1718478;83;21041;-70
2022/04/01 11:45:59;;;;;;;29.40;17.45;;;;;;;;;;1718359;83;21013;-69
2022/04/01 11:48:27;;;;;;;28.70;13.38;;;;;;;;;;1718502;83;21465;-69
2022/04/01 11:50:58;;;;;;;26.27;13.48;;;;;;;;;;1675862;85;21096;-69
2022/04/01 11:53:29;;;;;;;25.77;16.52;;;;;;;;;;1590285;90;21107;-68
2022/04/01 11:55:56;;;;;;;28.12;13.18;;;;;;;;;;1590230;90;21068;-68
2022/04/01 11:58:23;;;;;;;33.33;15.35;;;;;;;;;;1606636;88;21517;-69
2022/04/01 12:00:51;;;;;;;33.00;14.78;;;;;;;;;;1676216;85;21654;-69
2022/04/01 12:03:20;;;;;;;32.70;17.02;;;;;;;;;;1710080;82;21392;-69
2022/04/01 12:05:48;;;;;;;26.33;12.88;;;;;;;;;;1718516;83;22274;-69
2022/04/01 12:11:04;;;;;;;30.95;14.23;;;;;;;;;;1718188;83;21073;-70
2022/04/01 12:13:31;;;;;;;31.77;16.57;;;;;;;;;;1718558;83;21002;-69
2022/04/01 12:15:59;;;;;;;29.18;13.75;;;;;;;;;;1718485;83;21025;-70
2022/04/01 12:18:26;;;;;;;27.93;12.45;;;;;;;;;;1718481;83;21056;-70
2022/04/01 12:20:54;;;;;;;31.68;14.80;;;;;;;;;;1718352;83;21552;-70
2022/04/01 12:23:21;;;;;;;31.05;15.00;;;;;;;;;;1718381;83;21052;-70
2022/04/01 12:25:48;;;;;;;29.37;13.35;;;;;;;;;;1718406;83;21048;-70
2022/04/01 12:28:16;;;;;;;25.65;15.45;;;;;;;;;;1718414;83;21033;-70
2022/04/01 12:30:44;;;;;;;25.88;12.73;;;;;;;;;;1718531;83;21284;-70
2022/04/01 12:33:13;;;;;;;25.52;13.30;;;;;;;;;;1718308;83;21540;-70
2022/04/01 12:35:50;;;;;;;29.50;13.13;;;;;;;;;;1718447;83;21627;-70
2022/04/01 12:38:18;;;;;;;20.23;9.75;;;;;;;;;;1718086;83;21076;-70
2022/04/01 12:40:47;;;;;;;29.37;12.58;;;;;;;;;;1718331;83;21457;-69
2022/04/01 12:43:32;;;;;;;26.37;11.33;;;;;;;;;;1718401;83;21034;-69
2022/04/01 12:46:06;;;;;;;21.97;11.38;;;;;;;;;;1718500;83;21006;-70
2022/04/01 12:48:38;;;;;;;26.55;12.18;;;;;;;;;;1718415;83;21492;-70
2022/04/01 12:51:05;;;;;;;20.65;10.43;;;;;;;;;;1717859;83;21124;-70
2022/04/01 12:53:32;;;;;;;20.70;10.88;;;;;;;;;;1718381;83;21532;-70
2022/04/01 12:56:17;;;;;;;21.50;12.30;;;;;;;;;;1718361;83;22073;-69
2022/04/01 12:58:50;;;;;;;25.62;10.90;;;;;;;;;;1718529;83;21037;-68
2022/04/01 13:01:22;;;;;;;24.60;10.63;;;;;;;;;;1718615;83;21009;-68
2022/04/01 13:03:49;;;;;;;29.87;12.82;;;;;;;;;;1718219;82;21080;-68
2022/04/01 13:06:16;;;;;;;21.42;10.28;;;;;;;;;;1718705;83;21516;-69
2022/04/01 13:08:45;;;;;;;24.67;9.93;;;;;;;;;;1718209;83;21073;-70
2022/04/01 13:11:13;;;;;;;25.27;11.63;;;;;;;;;;1718391;83;21052;-69
2022/04/01 13:13:42;;;;;;;22.27;10.70;;;;;;;;;;1718190;83;21137;-70
2022/04/01 13:16:11;;;;;;;26.15;11.35;;;;;;;;;;1718509;83;20989;-70
2022/04/01 13:18:40;;;;;;;18.98;9.00;;;;;;;;;;1718227;83;21045;-69
2022/04/01 13:21:09;;;;;;;21.57;8.78;;;;;;;;;;1718417;83;20954;-70
2022/04/01 13:23:38;;;;;;;23.77;8.18;;;;;;;;;;1718369;83;21073;-68
2022/04/01 13:26:05;;;;;;;25.82;11.05;;;;;;;;;;1718461;83;21983;-68
2022/04/01 13:28:32;;;;;;;18.55;8.33;;;;;;;;;;1718477;83;21580;-68
2022/04/01 13:31:05;;;;;;;20.12;9.28;;;;;;;;;;1718397;83;21512;-69
2022/04/01 13:33:29;;;;;;;20.80;9.05;;;;;;;;;;1723991;83;21056;-69
2022/04/01 13:35:57;;;;;;;19.23;10.72;;;;;;;;;;1731220;83;21012;-69
2022/04/01 13:38:26;;;;;;;20.75;9.80;;;;;;;;;;1731307;82;21043;-69
2022/04/01 13:40:53;;;;;;;18.20;8.68;;;;;;;;;;1731247;83;21048;-70
2022/04/01 13:43:22;;;;;;;14.60;7.42;;;;;;;;;;1680909;85;21053;-70
2022/04/01 13:45:50;;;;;;;19.60;8.30;;;;;;;;;;1716980;82;21024;-69
2022/04/01 13:48:17;;;;;;;22.48;9.40;;;;;;;;;;1731224;83;21575;-69
2022/04/01 13:50:46;;;;;;;16.30;8.55;;;;;;;;;;1731293;82;21068;-69
2022/04/01 13:53:13;;;;;;;19.10;8.63;;;;;;;;;;1731313;82;21555;-69
2022/04/01 13:55:41;;;;;;;16.35;8.70;;;;;;;;;;1731573;82;21059;-69
2022/04/01 13:58:08;;;;;;;17.73;7.60;;;;;;;;;;1731440;83;21036;-69
2022/04/01 14:00:39;;;;;;;17.55;8.90;;;;;;;;;;1731418;82;21009;-69
2022/04/01 14:03:06;;;;;;;17.85;7.97;;;;;;;;;;1731252;82;21068;-69
2022/04/01 14:05:34;;;;;;;18.05;9.98;;;;;;;;;;1731439;82;21583;-70
2022/04/01 14:08:03;;;;;;;22.05;8.40;;;;;;;;;;1731357;82;21083;-69
2022/04/01 14:10:31;;;;;;;17.92;8.43;;;;;;;;;;1731517;83;21083;-69
2022/04/01 14:13:01;;;;;;;14.13;7.17;;;;;;;;;;1731393;82;21025;-70
2022/04/01 14:15:27;;;;;;;16.65;7.95;;;;;;;;;;1731255;83;21084;-70
2022/04/01 14:17:54;;;;;;;20.65;8.88;;;;;;;;;;1731207;82;21028;-70
2022/04/01 14:20:21;;;;;;;19.07;9.28;;;;;;;;;;1731165;83;21020;-70
2022/04/01 14:22:50;;;;;;;14.93;7.75;;;;;;;;;;1730882;82;21092;-70
2022/04/01 14:25:16;;;;;;;18.80;8.93;;;;;;;;;;1731430;83;21087;-70
2022/04/01 14:27:43;;;;;;;18.35;9.05;;;;;;;;;;1731407;83;21064;-69
2022/04/01 14:30:18;;;;;;;17.95;8.20;;;;;;;;;;1731414;82;21596;-71
2022/04/01 14:32:45;;;;;;;12.93;6.72;;;;;;;;;;1731288;83;21052;-70
2022/04/01 14:35:12;;;;;;;15.00;7.40;;;;;;;;;;1731315;82;21040;-70
2022/04/01 14:37:39;;;;;;;15.98;8.20;;;;;;;;;;1731323;82;21029;-69
2022/04/01 14:40:08;;;;;;;14.93;8.00;;;;;;;;;;1731306;83;21476;-69
2022/04/01 14:42:35;;;;;;;14.40;7.97;;;;;;;;;;1731385;83;21009;-70
2022/04/01 14:45:03;;;;;;;16.80;7.65;;;;;;;;;;1731354;82;21032;-70
2022/04/01 14:47:31;;;;;;;15.38;7.67;;;;;;;;;;1731355;82;21040;-69
2022/04/01 14:49:59;;;;;;;16.35;7.87;;;;;;;;;;1731441;82;21586;-70
2022/04/01 14:52:26;;;;;;;15.40;9.03;;;;;;;;;;1731391;83;21001;-70
2022/04/01 14:54:53;;;;;;;11.35;5.80;;;;;;;;;;1731439;83;20977;-70
2022/04/01 14:57:21;;;;;;;10.35;6.03;;;;;;;;;;1731363;82;21032;-70
2022/04/01 14:59:50;;;;;;;12.07;6.90;;;;;;;;;;1731511;82;21020;-70
2022/04/01 15:02:18;;;;;;;12.68;6.95;;;;;;;;;;1731439;83;21536;-70